Time;durP1;ratioP1;P1;durP2;ratioP2;P2;SDS_P1;SDS_P2;PMS_P1;PMS_P2;Temp;Humidity;BMP_temperature;BMP_pressure;BME280_temperature;BME280_humidity;BME280_pressure;Samples;Min_cycle;Max_cycle;Signal;HPM_P1;HPM_P2
2022/01/04 00:00:37;;;;;;;21.98;10.48;;;7.40;99.90;;;;;;5073443;28;20046;-73
2022/01/04 00:03:03;;;;;;;20.75;9.40;;;7.40;99.90;;;;;;5073338;28;20071;-72
2022/01/04 00:05:28;;;;;;;23.13;9.60;;;7.40;99.90;;;;;;5073610;28;20083;-73
2022/01/04 00:07:54;;;;;;;23.80;9.60;;;7.40;99.90;;;;;;5073097;28;20082;-73
2022/01/04 00:10:23;;;;;;;26.42;10.00;;;7.50;99.90;;;;;;5073191;28;20044;-74
2022/01/04 00:15:34;;;;;;;30.95;9.25;;;7.40;99.90;;;;;;5072685;28;20472;-73
2022/01/04 00:18:00;;;;;;;22.92;9.57;;;7.40;99.90;;;;;;5056477;28;20171;-72
2022/01/04 00:20:25;;;;;;;23.83;9.02;;;7.40;99.90;;;;;;5073762;28;20121;-73
2022/01/04 00:22:51;;;;;;;16.80;8.68;;;7.40;99.90;;;;;;5072387;28;20048;-73
2022/01/04 00:25:17;;;;;;;23.25;9.65;;;7.40;99.90;;;;;;5073482;28;20050;-73
2022/01/04 00:27:43;;;;;;;24.52;10.20;;;7.40;99.90;;;;;;5073064;28;20044;-72
2022/01/04 00:30:09;;;;;;;26.95;10.60;;;7.40;99.90;;;;;;5073337;28;20365;-72
2022/01/04 00:32:35;;;;;;;21.60;9.25;;;7.30;99.90;;;;;;5073155;28;20132;-73
2022/01/04 00:35:00;;;;;;;21.50;9.63;;;7.40;99.90;;;;;;5073172;28;20111;-73
2022/01/04 00:37:26;;;;;;;25.13;9.93;;;7.30;99.90;;;;;;5072301;28;20040;-74
2022/01/04 00:39:52;;;;;;;26.88;9.77;;;7.40;99.90;;;;;;5090362;28;20047;-73
2022/01/04 00:42:17;;;;;;;23.48;10.30;;;7.40;99.90;;;;;;5090847;28;20093;-74
2022/01/04 00:44:43;;;;;;;27.20;10.60;;;7.40;99.90;;;;;;5090477;28;20036;-72
2022/01/04 00:47:09;;;;;;;21.75;10.63;;;7.50;99.90;;;;;;5073094;28;20412;-73
2022/01/04 00:49:36;;;;;;;27.25;10.57;;;7.50;99.90;;;;;;5072605;28;20519;-73
2022/01/04 00:52:02;;;;;;;25.15;11.05;;;7.50;99.90;;;;;;5072360;28;20568;-73
2022/01/04 00:54:28;;;;;;;30.02;10.07;;;7.60;99.90;;;;;;5073048;28;20535;-71
2022/01/04 00:56:53;;;;;;;21.80;9.68;;;7.60;99.90;;;;;;5090131;28;20047;-72
2022/01/04 00:59:19;;;;;;;21.35;10.65;;;7.60;99.90;;;;;;5073040;28;20037;-72
2022/01/04 01:01:45;;;;;;;21.10;10.43;;;7.60;99.90;;;;;;5072090;28;20155;-74
2022/01/04 01:04:11;;;;;;;18.10;9.82;;;7.60;99.90;;;;;;5072361;28;20404;-74
2022/01/04 01:06:37;;;;;;;23.63;10.30;;;7.60;99.90;;;;;;5090939;28;20070;-74
2022/01/04 01:09:04;;;;;;;21.88;10.05;;;7.60;99.90;;;;;;5056441;28;20508;-73
2022/01/04 01:11:30;;;;;;;27.85;10.63;;;7.60;99.90;;;;;;5071274;28;20083;-73
2022/01/04 01:13:56;;;;;;;23.45;11.20;;;7.60;99.90;;;;;;5072839;28;20121;-72
2022/01/04 01:16:21;;;;;;;22.85;10.90;;;7.60;99.90;;;;;;5072553;28;20055;-73
2022/01/04 01:18:47;;;;;;;26.55;10.68;;;7.50;99.90;;;;;;5071985;28;20044;-72
2022/01/04 01:21:13;;;;;;;25.67;12.35;;;7.50;99.90;;;;;;5072711;28;20054;-71
2022/01/04 01:23:39;;;;;;;23.42;10.40;;;7.50;99.90;;;;;;5072479;28;20131;-71
2022/01/04 01:26:08;;;;;;;29.45;11.93;;;7.50;99.90;;;;;;5072234;28;20154;-72
2022/01/04 01:28:35;;;;;;;31.20;11.73;;;7.50;99.90;;;;;;5072402;28;20042;-72
2022/01/04 01:31:01;;;;;;;24.85;12.93;;;7.50;99.90;;;;;;5074204;28;20047;-72
2022/01/04 01:33:28;;;;;;;25.35;12.55;;;7.40;99.90;;;;;;5075837;28;20044;-73
2022/01/04 01:35:55;;;;;;;26.00;11.73;;;7.50;99.90;;;;;;5076394;28;20046;-72
2022/01/04 01:38:21;;;;;;;26.02;12.18;;;7.50;99.90;;;;;;5076443;28;20127;-72
2022/01/04 01:40:48;;;;;;;24.73;11.75;;;7.50;99.90;;;;;;5093659;28;20111;-72
2022/01/04 01:43:14;;;;;;;31.63;13.18;;;7.50;99.90;;;;;;5076240;28;20522;-72
2022/01/04 01:45:40;;;;;;;27.88;12.73;;;7.50;99.90;;;;;;5076265;28;20055;-71
2022/01/04 01:48:06;;;;;;;27.58;13.38;;;7.60;99.90;;;;;;5094166;28;20488;-73
2022/01/04 01:50:32;;;;;;;27.60;12.85;;;7.60;99.90;;;;;;5076426;28;20040;-74
2022/01/04 01:52:59;;;;;;;29.42;13.68;;;7.60;99.90;;;;;;5074951;28;20525;-74
2022/01/04 01:55:24;;;;;;;32.03;13.57;;;7.60;99.90;;;;;;5076285;28;20055;-73
2022/01/04 01:57:51;;;;;;;25.10;13.50;;;7.60;99.90;;;;;;5075480;28;20032;-74
2022/01/04 02:00:20;;;;;;;31.67;14.30;;;7.50;99.90;;;;;;5075822;28;20075;-73
2022/01/04 02:02:46;;;;;;;24.48;13.07;;;7.50;99.90;;;;;;5072271;28;20047;-74
2022/01/04 02:05:12;;;;;;;33.75;14.43;;;7.50;99.90;;;;;;5062186;28;20404;-73
2022/01/04 02:07:39;;;;;;;26.00;13.15;;;7.50;99.90;;;;;;5058844;28;20048;-73
2022/01/04 02:10:07;;;;;;;26.13;14.20;;;7.40;99.90;;;;;;5075887;28;20401;-73
2022/01/04 02:12:36;;;;;;;28.52;14.00;;;7.50;99.90;;;;;;5075615;28;20450;-74
2022/01/04 02:15:03;;;;;;;30.15;14.38;;;7.50;99.90;;;;;;5075183;28;20115;-74
2022/01/04 02:17:29;;;;;;;24.73;14.13;;;7.50;99.90;;;;;;5075647;28;20055;-74
2022/01/04 02:19:59;;;;;;;31.30;14.40;;;7.60;99.90;;;;;;5075533;28;20040;-73
2022/01/04 02:22:26;;;;;;;26.60;14.02;;;7.60;99.90;;;;;;5092007;28;20467;-73
2022/01/04 02:24:52;;;;;;;28.70;14.43;;;7.50;99.90;;;;;;5075357;28;20079;-73
2022/01/04 02:27:18;;;;;;;30.05;15.20;;;7.60;99.90;;;;;;5075858;28;20071;-73
2022/01/04 02:29:45;;;;;;;34.88;16.27;;;7.60;99.90;;;;;;5092786;28;20055;-73
2022/01/04 02:32:11;;;;;;;28.58;16.23;;;7.60;99.90;;;;;;5093370;28;20392;-73
2022/01/04 02:34:37;;;;;;;31.50;15.52;;;7.60;99.90;;;;;;5094100;28;20078;-73
2022/01/04 02:37:03;;;;;;;33.67;16.40;;;7.50;99.90;;;;;;5092986;28;20043;-73
2022/01/04 02:39:30;;;;;;;27.70;15.55;;;7.60;99.90;;;;;;5075196;28;20066;-73
2022/01/04 02:41:56;;;;;;;36.45;16.27;;;7.60;99.90;;;;;;5093225;28;20408;-73
2022/01/04 02:44:21;;;;;;;30.33;16.10;;;7.60;99.90;;;;;;5092892;28;20048;-73
2022/01/04 02:46:47;;;;;;;30.50;16.23;;;7.60;99.90;;;;;;5093375;28;20048;-72
2022/01/04 02:49:13;;;;;;;28.88;15.98;;;7.60;99.90;;;;;;5074606;28;20485;-73
2022/01/04 02:51:39;;;;;;;36.90;17.25;;;7.60;99.90;;;;;;5074493;28;20071;-73
2022/01/04 02:54:05;;;;;;;30.65;17.10;;;7.60;99.90;;;;;;5075076;28;20083;-72
2022/01/04 02:56:30;;;;;;;31.90;17.17;;;7.60;99.90;;;;;;5074496;28;20093;-74
2022/01/04 02:59:03;;;;;;;31.92;17.17;;;7.70;99.90;;;;;;5074310;28;20041;-74
2022/01/04 03:01:29;;;;;;;31.27;16.88;;;7.70;99.90;;;;;;5057768;28;20109;-74
2022/01/04 03:03:54;;;;;;;32.92;17.92;;;7.70;99.90;;;;;;5074541;28;20127;-74
2022/01/04 03:06:20;;;;;;;30.92;16.73;;;7.70;99.90;;;;;;5075027;28;20036;-74
2022/01/04 03:08:45;;;;;;;33.55;17.77;;;7.70;99.90;;;;;;5093129;28;20083;-75
2022/01/04 03:11:11;;;;;;;27.90;17.00;;;7.70;99.90;;;;;;5092457;28;20044;-75
2022/01/04 03:13:37;;;;;;;31.15;16.90;;;7.70;99.90;;;;;;5092167;28;20097;-75
2022/01/04 03:16:02;;;;;;;27.30;17.50;;;7.80;99.90;;;;;;5074260;28;20036;-75
2022/01/04 03:18:28;;;;;;;35.15;17.25;;;7.80;99.90;;;;;;5074223;28;20040;-75
2022/01/04 03:20:54;;;;;;;35.00;17.27;;;7.70;99.90;;;;;;5074696;28;20458;-74
2022/01/04 03:23:19;;;;;;;28.17;16.95;;;7.70;99.90;;;;;;5092782;28;20055;-73
2022/01/04 03:25:45;;;;;;;31.20;17.05;;;7.70;99.90;;;;;;5091907;28;20039;-72
2022/01/04 03:28:10;;;;;;;30.70;17.40;;;7.70;99.90;;;;;;5092933;28;20493;-72
2022/01/04 03:30:36;;;;;;;27.02;17.10;;;7.80;99.90;;;;;;5092575;28;20040;-72
2022/01/04 03:33:02;;;;;;;27.95;17.55;;;7.90;99.90;;;;;;5091981;28;20040;-72
2022/01/04 03:35:28;;;;;;;32.20;17.42;;;7.80;99.90;;;;;;5092410;28;20129;-71
2022/01/04 03:37:53;;;;;;;31.58;16.67;;;7.80;99.90;;;;;;5074807;28;20124;-71
2022/01/04 03:40:19;;;;;;;29.48;16.98;;;7.80;99.90;;;;;;5091296;28;20052;-71
2022/01/04 03:42:45;;;;;;;29.02;17.15;;;7.90;99.90;;;;;;5074327;28;20051;-72
2022/01/04 03:45:11;;;;;;;30.13;17.83;;;7.90;99.90;;;;;;5073697;28;20044;-73
2022/01/04 03:47:37;;;;;;;32.08;17.42;;;7.90;99.90;;;;;;5073776;28;20044;-73
2022/01/04 03:50:05;;;;;;;32.08;17.75;;;8.00;99.90;;;;;;5074490;28;20108;-74
2022/01/04 03:52:31;;;;;;;26.08;15.85;;;8.00;99.90;;;;;;5055702;28;20127;-74
2022/01/04 03:54:57;;;;;;;30.70;16.42;;;8.00;99.90;;;;;;5073874;28;20077;-73
2022/01/04 03:57:22;;;;;;;25.92;16.88;;;8.00;99.90;;;;;;5073621;28;20044;-72
2022/01/04 03:59:48;;;;;;;27.95;16.88;;;8.00;99.90;;;;;;5069634;28;20068;-73
2022/01/04 04:02:14;;;;;;;25.80;16.35;;;8.00;99.90;;;;;;5073041;28;20519;-73
2022/01/04 04:04:40;;;;;;;30.30;17.17;;;8.00;99.90;;;;;;5074087;28;20036;-73
2022/01/04 04:07:05;;;;;;;31.88;17.10;;;8.00;99.90;;;;;;5073110;28;20526;-73
2022/01/04 04:09:34;;;;;;;27.75;16.38;;;8.00;99.90;;;;;;5074056;28;20036;-73
2022/01/04 04:12:01;;;;;;;25.10;17.13;;;8.10;99.90;;;;;;5073230;28;20052;-73
2022/01/04 04:14:27;;;;;;;23.98;16.35;;;8.10;99.90;;;;;;5091248;28;20075;-73
2022/01/04 04:16:53;;;;;;;25.67;16.10;;;8.00;99.90;;;;;;5072841;28;20392;-73
2022/01/04 04:19:19;;;;;;;24.67;16.73;;;8.00;99.90;;;;;;5074304;28;20131;-73
2022/01/04 04:21:44;;;;;;;23.52;17.25;;;8.10;99.90;;;;;;5072099;28;20044;-73
2022/01/04 04:24:10;;;;;;;29.98;16.83;;;8.00;99.90;;;;;;5073778;28;20131;-73
2022/01/04 04:26:35;;;;;;;29.10;17.20;;;8.00;99.90;;;;;;5073057;28;20122;-72
2022/01/04 04:29:01;;;;;;;28.13;17.30;;;8.00;99.90;;;;;;5090843;28;20040;-73
2022/01/04 04:31:26;;;;;;;31.60;17.30;;;8.00;99.90;;;;;;5072921;28;20127;-73
2022/01/04 04:33:52;;;;;;;28.10;17.52;;;8.00;99.90;;;;;;5072404;28;20040;-73
2022/01/04 04:36:18;;;;;;;26.55;16.98;;;7.90;99.90;;;;;;5090882;28;20044;-73
2022/01/04 04:38:43;;;;;;;26.05;17.40;;;7.90;99.90;;;;;;5069161;28;20036;-73
2022/01/04 04:41:09;;;;;;;29.25;17.00;;;7.90;99.90;;;;;;5053710;28;20071;-71
2022/01/04 04:43:34;;;;;;;29.80;16.10;;;7.90;99.90;;;;;;5070686;28;20492;-72
2022/01/04 04:46:00;;;;;;;28.23;16.23;;;7.90;99.90;;;;;;5073390;28;20075;-71
2022/01/04 04:48:26;;;;;;;22.80;15.75;;;7.90;99.90;;;;;;5072515;28;20400;-72
2022/01/04 04:50:52;;;;;;;21.17;14.20;;;7.90;99.90;;;;;;5072582;28;20044;-71
2022/01/04 04:53:18;;;;;;;25.80;15.05;;;7.90;99.90;;;;;;5072049;28;20048;-72
2022/01/04 04:55:43;;;;;;;26.17;16.10;;;7.90;99.90;;;;;;5055999;28;20048;-72
2022/01/04 04:58:12;;;;;;;24.60;16.20;;;7.90;99.90;;;;;;5055698;28;20036;-71
2022/01/04 05:00:38;;;;;;;22.83;15.60;;;7.80;99.90;;;;;;5073536;28;20043;-72
2022/01/04 05:03:03;;;;;;;28.95;17.45;;;7.90;99.90;;;;;;5090051;28;20059;-72
2022/01/04 05:05:29;;;;;;;27.33;17.48;;;7.90;99.90;;;;;;5072234;28;20044;-73
2022/01/04 05:07:54;;;;;;;28.02;17.13;;;7.90;99.90;;;;;;5072165;28;20090;-73
2022/01/04 05:10:20;;;;;;;30.30;16.60;;;8.00;99.90;;;;;;5072196;28;20044;-72
2022/01/04 05:12:45;;;;;;;27.70;17.48;;;8.00;99.90;;;;;;5072459;28;20057;-73
2022/01/04 05:15:11;;;;;;;29.42;17.63;;;8.00;99.90;;;;;;5073037;28;20447;-72
2022/01/04 05:17:37;;;;;;;30.88;17.17;;;8.00;99.90;;;;;;5070861;28;20043;-72
2022/01/04 05:20:03;;;;;;;24.75;17.35;;;8.00;99.90;;;;;;5072884;28;20512;-72
2022/01/04 05:22:29;;;;;;;30.83;16.92;;;8.00;99.90;;;;;;5071881;28;20039;-72
2022/01/04 05:24:54;;;;;;;29.13;17.05;;;8.00;99.90;;;;;;5072107;28;20119;-72
2022/01/04 05:27:20;;;;;;;29.73;17.42;;;8.00;99.90;;;;;;5072161;28;20134;-72
2022/01/04 05:29:46;;;;;;;27.50;17.77;;;8.00;99.90;;;;;;5073234;28;20047;-72
2022/01/04 05:32:12;;;;;;;30.23;16.88;;;8.00;99.90;;;;;;5068569;28;20045;-72
2022/01/04 05:34:38;;;;;;;29.75;17.67;;;8.10;99.90;;;;;;5091041;28;20039;-72
2022/01/04 05:37:04;;;;;;;25.63;17.25;;;8.00;99.90;;;;;;5090113;28;20400;-71
2022/01/04 05:39:29;;;;;;;27.23;17.98;;;8.10;99.90;;;;;;5089943;28;20058;-71
2022/01/04 05:41:55;;;;;;;29.50;17.25;;;8.10;99.90;;;;;;5072593;28;20044;-71
2022/01/04 05:44:21;;;;;;;29.83;19.45;;;8.10;99.90;;;;;;5072098;28;20055;-72
2022/01/04 05:46:46;;;;;;;25.42;17.83;;;8.10;99.90;;;;;;5072006;28;20040;-72
2022/01/04 05:49:12;;;;;;;25.98;16.98;;;8.10;99.90;;;;;;5090002;28;20101;-73
2022/01/04 05:51:38;;;;;;;26.25;17.13;;;8.10;99.90;;;;;;5091123;28;20399;-71
2022/01/04 05:54:06;;;;;;;24.27;17.20;;;8.10;99.90;;;;;;5063139;28;20048;-73
2022/01/04 05:56:32;;;;;;;24.60;18.23;;;8.10;99.90;;;;;;5052447;28;20191;-72
2022/01/04 05:58:58;;;;;;;35.00;18.27;;;8.00;99.90;;;;;;5069843;28;20044;-72
2022/01/04 06:01:23;;;;;;;32.20;19.80;;;8.00;99.90;;;;;;5055281;28;20069;-72
2022/01/04 06:03:51;;;;;;;28.65;18.75;;;8.00;99.90;;;;;;5071788;28;20040;-72
2022/01/04 06:06:16;;;;;;;28.60;18.95;;;8.00;99.90;;;;;;5071848;28;20459;-72
2022/01/04 06:08:43;;;;;;;29.77;19.85;;;8.00;99.90;;;;;;5071760;28;20124;-72
2022/01/04 06:11:18;;;;;;;34.40;20.63;;;8.00;99.90;;;;;;5091082;28;20047;-71
2022/01/04 06:16:28;;;;;;;32.78;20.48;;;8.00;99.90;;;;;;5091040;28;20496;-73
2022/01/04 06:18:53;;;;;;;31.63;19.90;;;8.00;99.90;;;;;;5075531;28;20086;-73
2022/01/04 06:21:22;;;;;;;31.83;19.75;;;8.00;99.90;;;;;;5075415;28;20047;-73
2022/01/04 06:23:48;;;;;;;33.75;21.73;;;8.00;99.90;;;;;;5074123;28;20036;-73
2022/01/04 06:26:13;;;;;;;34.78;21.30;;;8.00;99.90;;;;;;5075969;28;20044;-74
2022/01/04 06:28:39;;;;;;;37.92;21.63;;;8.00;99.90;;;;;;5074091;28;20492;-72
2022/01/04 06:31:05;;;;;;;31.00;21.80;;;8.00;99.90;;;;;;5076193;28;20044;-73
2022/01/04 06:33:30;;;;;;;34.25;21.77;;;7.90;99.90;;;;;;5074787;28;20450;-73
2022/01/04 06:35:56;;;;;;;35.30;23.23;;;8.00;99.90;;;;;;5058559;28;20040;-74
2022/01/04 06:38:21;;;;;;;37.63;23.80;;;7.90;99.90;;;;;;5075108;28;20424;-74
2022/01/04 06:40:47;;;;;;;46.70;24.10;;;7.90;99.90;;;;;;5058829;28;20040;-74
2022/01/04 06:43:13;;;;;;;37.70;23.67;;;7.90;99.90;;;;;;5048244;28;20094;-74
2022/01/04 06:45:38;;;;;;;38.00;24.45;;;7.90;99.90;;;;;;5074170;28;20444;-74
2022/01/04 06:48:04;;;;;;;42.53;25.08;;;7.90;99.90;;;;;;5075548;28;20032;-74
2022/01/04 06:50:30;;;;;;;44.28;23.08;;;7.90;99.90;;;;;;5074441;28;20048;-74
2022/01/04 06:52:56;;;;;;;32.42;22.75;;;7.90;99.90;;;;;;5074355;28;20489;-74
2022/01/04 06:55:22;;;;;;;36.65;22.75;;;7.90;99.90;;;;;;5074435;28;20051;-71
2022/01/04 06:57:47;;;;;;;35.40;24.10;;;7.90;99.90;;;;;;5093151;28;20048;-72
2022/01/04 07:00:13;;;;;;;46.97;25.90;;;7.90;99.90;;;;;;5075094;28;20050;-73
2022/01/04 07:02:39;;;;;;;34.60;23.17;;;7.90;99.90;;;;;;5074223;28;20044;-73
2022/01/04 07:05:05;;;;;;;34.53;23.80;;;7.90;99.90;;;;;;5075075;28;20394;-72
2022/01/04 07:07:30;;;;;;;42.75;23.83;;;7.90;99.90;;;;;;5074832;28;20449;-72
2022/01/04 07:09:56;;;;;;;38.15;24.02;;;7.90;99.90;;;;;;5073731;28;20093;-72
2022/01/04 07:12:22;;;;;;;41.47;24.60;;;7.90;99.90;;;;;;5074605;28;20068;-72
2022/01/04 07:14:47;;;;;;;36.17;24.67;;;7.90;99.90;;;;;;5074659;28;20047;-70
2022/01/04 07:17:13;;;;;;;34.63;23.65;;;7.90;99.90;;;;;;5091905;28;20130;-71
2022/01/04 07:19:39;;;;;;;35.67;23.73;;;7.90;99.90;;;;;;5075149;28;20043;-71
2022/01/04 07:22:04;;;;;;;37.45;23.45;;;7.90;99.90;;;;;;5092381;28;20056;-72
2022/01/04 07:24:30;;;;;;;23.90;16.88;;;8.00;99.90;;;;;;5074375;28;20126;-72
2022/01/04 07:26:56;;;;;;;25.38;15.90;;;8.00;99.90;;;;;;5074085;28;20040;-72
2022/01/04 07:29:21;;;;;;;27.92;18.30;;;8.00;99.90;;;;;;5057104;28;20058;-71
2022/01/04 07:31:47;;;;;;;27.42;20.08;;;7.90;99.90;;;;;;5073617;28;20461;-69
2022/01/04 07:34:13;;;;;;;29.98;19.45;;;7.90;99.90;;;;;;5092922;28;20055;-72
2022/01/04 07:36:38;;;;;;;27.13;20.27;;;7.90;99.90;;;;;;5073856;28;20047;-71
2022/01/04 07:39:04;;;;;;;29.70;22.52;;;7.90;99.90;;;;;;5092515;28;20048;-71
2022/01/04 07:41:30;;;;;;;32.97;22.88;;;8.00;99.90;;;;;;5074235;28;20511;-72
2022/01/04 07:43:55;;;;;;;30.48;22.90;;;7.90;99.90;;;;;;5074431;28;20459;-72
2022/01/04 07:46:23;;;;;;;35.85;25.10;;;8.00;99.90;;;;;;5073354;28;20048;-73
2022/01/04 07:48:50;;;;;;;35.97;25.20;;;8.00;99.90;;;;;;5057965;28;20044;-73
2022/01/04 07:51:16;;;;;;;37.10;24.95;;;8.00;99.90;;;;;;5056762;28;20050;-73
2022/01/04 07:53:42;;;;;;;35.40;23.48;;;8.00;99.90;;;;;;5073441;28;20424;-72
2022/01/04 07:56:08;;;;;;;28.85;20.70;;;8.00;99.90;;;;;;5074422;28;20044;-73
2022/01/04 07:58:33;;;;;;;33.97;23.50;;;8.00;99.90;;;;;;5054071;28;20048;-72
2022/01/04 08:01:00;;;;;;;29.75;22.38;;;8.10;99.90;;;;;;5054080;28;20546;-72
2022/01/04 08:03:26;;;;;;;29.38;22.50;;;8.00;99.90;;;;;;5073737;28;20048;-72
2022/01/04 08:05:51;;;;;;;30.27;22.67;;;8.10;99.90;;;;;;5072476;28;20047;-72
2022/01/04 08:08:17;;;;;;;30.90;21.55;;;8.10;99.90;;;;;;5073334;28;20036;-72
2022/01/04 08:10:45;;;;;;;31.98;21.60;;;8.10;99.90;;;;;;5074043;28;20039;-72
2022/01/04 08:13:11;;;;;;;27.75;20.38;;;8.10;99.90;;;;;;5072789;28;20043;-72
2022/01/04 08:15:36;;;;;;;30.45;20.33;;;8.10;99.90;;;;;;5073669;28;20436;-74
2022/01/04 08:18:02;;;;;;;33.75;22.70;;;8.20;99.90;;;;;;5073813;28;20052;-72
2022/01/04 08:20:28;;;;;;;35.88;23.77;;;8.10;99.90;;;;;;5090753;28;20519;-71
2022/01/04 08:22:54;;;;;;;37.90;23.45;;;8.20;99.90;;;;;;5090754;28;20036;-72
2022/01/04 08:25:20;;;;;;;35.53;22.60;;;8.10;99.90;;;;;;5072940;28;20079;-72
2022/01/04 08:27:46;;;;;;;26.92;19.70;;;8.10;99.90;;;;;;5070781;28;20129;-72
2022/01/04 08:30:13;;;;;;;27.17;20.60;;;8.10;99.90;;;;;;5069573;28;20036;-72
2022/01/04 08:32:38;;;;;;;28.13;20.42;;;8.10;99.90;;;;;;5091495;28;20489;-71
2022/01/04 08:35:08;;;;;;;31.38;20.45;;;8.20;99.90;;;;;;5071926;28;20036;-71
2022/01/04 08:37:34;;;;;;;26.33;18.88;;;8.10;99.90;;;;;;5091259;28;20040;-71
2022/01/04 08:39:59;;;;;;;28.55;19.83;;;8.20;99.90;;;;;;5072341;28;20048;-73
2022/01/04 08:42:25;;;;;;;28.13;19.92;;;8.20;99.90;;;;;;5071228;28;20454;-73
2022/01/04 08:44:52;;;;;;;27.65;18.70;;;8.20;99.90;;;;;;5069855;28;20044;-72
2022/01/04 08:47:17;;;;;;;31.95;20.23;;;8.20;99.90;;;;;;5073232;28;20051;-71
2022/01/04 08:49:43;;;;;;;32.20;21.55;;;8.10;99.90;;;;;;5071423;28;20048;-73
2022/01/04 08:52:09;;;;;;;29.75;19.17;;;8.20;99.90;;;;;;5089807;28;20044;-72
2022/01/04 08:54:36;;;;;;;32.78;19.80;;;8.20;99.90;;;;;;5065228;28;20059;-71
2022/01/04 08:57:02;;;;;;;26.20;20.65;;;8.10;99.90;;;;;;5090086;28;20055;-71
2022/01/04 08:59:29;;;;;;;31.67;20.75;;;8.10;99.90;;;;;;5072253;28;20480;-71
2022/01/04 09:01:56;;;;;;;27.92;20.10;;;8.10;99.90;;;;;;5072221;28;20047;-73
2022/01/04 09:04:22;;;;;;;28.98;20.55;;;8.10;99.90;;;;;;5072206;28;20048;-72
2022/01/04 09:06:48;;;;;;;34.65;19.80;;;8.10;99.90;;;;;;5073097;28;20112;-71
2022/01/04 09:09:14;;;;;;;25.55;17.05;;;8.10;99.90;;;;;;5089594;28;20890;-77
2022/01/04 09:11:40;;;;;;;16.48;9.88;;;8.10;99.90;;;;;;5072102;28;20063;-80
2022/01/04 09:19:19;;;;;;;15.93;10.07;;;8.10;99.90;;;;;;5071584;28;20040;-78
2022/01/04 09:21:45;;;;;;;16.77;9.65;;;8.10;99.90;;;;;;5072715;28;20407;-78
2022/01/04 09:24:11;;;;;;;15.68;9.45;;;8.10;99.90;;;;;;5071187;28;20158;-77
2022/01/04 09:26:37;;;;;;;24.10;9.95;;;8.00;99.90;;;;;;5072916;28;20036;-76
2022/01/04 09:29:03;;;;;;;19.60;10.73;;;8.00;99.90;;;;;;5055513;28;20040;-77
2022/01/04 09:31:29;;;;;;;18.20;9.65;;;8.00;99.90;;;;;;5072378;28;20056;-76
2022/01/04 09:33:58;;;;;;;18.23;11.18;;;8.00;99.90;;;;;;5063585;28;20044;-76
2022/01/04 09:36:25;;;;;;;20.45;11.23;;;8.10;99.90;;;;;;5040637;28;20047;-77
2022/01/04 09:38:52;;;;;;;18.23;11.95;;;8.10;99.90;;;;;;5066101;28;20492;-76
2022/01/04 09:41:17;;;;;;;19.17;10.90;;;8.10;99.90;;;;;;5091105;28;20137;-76
2022/01/04 09:43:43;;;;;;;19.75;10.73;;;8.10;99.90;;;;;;5087131;28;20064;-76
2022/01/04 09:46:09;;;;;;;18.30;10.57;;;8.10;99.90;;;;;;5057281;28;20401;-76
2022/01/04 09:48:34;;;;;;;16.52;9.63;;;8.20;99.90;;;;;;5063463;28;20040;-76
2022/01/04 09:51:00;;;;;;;18.27;9.55;;;8.20;99.90;;;;;;5072524;28;20047;-76
2022/01/04 09:53:27;;;;;;;13.15;6.85;;;8.10;99.90;;;;;;5068429;28;20555;-76
2022/01/04 09:55:55;;;;;;;10.18;3.95;;;8.20;99.90;;;;;;5076032;28;20059;-76
2022/01/04 09:58:23;;;;;;;8.60;3.75;;;8.10;99.90;;;;;;5073378;28;20054;-76
2022/01/04 10:00:50;;;;;;;7.03;2.17;;;8.10;99.90;;;;;;5076470;28;20123;-72
2022/01/04 10:03:16;;;;;;;6.60;1.88;;;8.20;99.90;;;;;;5076013;28;20040;-77
2022/01/04 10:05:43;;;;;;;5.63;1.55;;;8.20;99.90;;;;;;5073449;28;20052;-75
2022/01/04 10:08:10;;;;;;;7.15;0.75;;;8.20;99.90;;;;;;5075374;28;20431;-74
2022/01/04 10:10:37;;;;;;;7.43;1.30;;;8.20;99.90;;;;;;5076563;28;20051;-75
2022/01/04 10:13:10;;;;;;;8.95;1.20;;;8.20;99.90;;;;;;5058657;28;20377;-76
2022/01/04 10:15:35;;;;;;;;;;;8.10;99.90;;;;;;5076259;28;20048;-75
2022/01/04 10:18:13;;;;;;;7.40;1.15;;;8.10;99.90;;;;;;5072847;28;20334;-74
2022/01/04 10:20:51;;;;;;;6.63;1.15;;;8.10;99.90;;;;;;5074024;28;20145;-74
2022/01/04 10:23:22;;;;;;;8.85;2.05;;;8.00;99.90;;;;;;5059474;28;20451;-73
2022/01/04 10:25:50;;;;;;;7.25;1.85;;;8.00;99.90;;;;;;5074782;28;20035;-74
2022/01/04 10:28:39;;;;;;;6.15;0.65;;;8.00;99.90;;;;;;5075774;28;20493;-75
2022/01/04 10:31:07;;;;;;;4.05;0.40;;;7.90;99.90;;;;;;5056161;28;20098;-75
2022/01/04 10:33:34;;;;;;;2.55;0.30;;;7.80;99.90;;;;;;5055486;28;20036;-75
2022/01/04 10:36:07;;;;;;;9.40;0.85;;;7.80;99.90;;;;;;5075094;28;20086;-75
2022/01/04 10:38:36;;;;;;;3.13;0.47;;;7.70;99.90;;;;;;5049920;28;20043;-74
2022/01/04 10:41:11;;;;;;;3.78;0.50;;;7.70;99.90;;;;;;5075702;28;20044;-74
2022/01/04 10:43:46;;;;;;;4.15;0.40;;;7.60;99.90;;;;;;5075002;28;20036;-71
2022/01/04 10:46:18;;;;;;;2.45;0.45;;;7.60;99.90;;;;;;5072038;28;20039;-75
2022/01/04 10:48:46;;;;;;;7.78;0.50;;;7.50;99.90;;;;;;5074083;28;20048;-74
2022/01/04 10:51:14;;;;;;;5.00;0.20;;;7.50;99.90;;;;;;5075427;28;20051;-75
2022/01/04 10:54:00;;;;;;;3.45;0.30;;;7.40;99.90;;;;;;5072631;28;20067;-74
2022/01/04 10:56:28;;;;;;;3.28;0.90;;;7.50;99.90;;;;;;5075357;28;20087;-75
2022/01/04 10:58:56;;;;;;;3.35;0.95;;;7.50;99.90;;;;;;5057950;28;20070;-75
2022/01/04 11:01:25;;;;;;;3.38;0.50;;;7.50;99.90;;;;;;5057498;28;20028;-75
2022/01/04 11:03:53;;;;;;;3.17;0.30;;;7.50;99.90;;;;;;5057918;28;20401;-75
2022/01/04 11:06:20;;;;;;;2.80;0.30;;;7.50;99.90;;;;;;5074643;28;20036;-73
2022/01/04 11:08:46;;;;;;;3.45;0.43;;;7.50;99.90;;;;;;5052463;28;20040;-75
2022/01/04 11:11:12;;;;;;;2.97;0.20;;;7.50;99.90;;;;;;5075571;28;20093;-75
2022/01/04 11:13:38;;;;;;;2.88;0.38;;;7.40;99.90;;;;;;5057771;28;20032;-72
2022/01/04 11:16:05;;;;;;;4.70;0.30;;;7.40;99.90;;;;;;5074284;28;20094;-75
2022/01/04 11:18:32;;;;;;;3.95;0.60;;;7.40;99.90;;;;;;5072997;28;20488;-75
2022/01/04 11:20:57;;;;;;;3.58;0.30;;;7.40;99.90;;;;;;5057356;28;20048;-72
2022/01/04 11:23:27;;;;;;;3.42;0.45;;;7.40;99.90;;;;;;5073772;28;20474;-75
2022/01/04 11:25:54;;;;;;;3.17;0.32;;;7.30;99.90;;;;;;5074818;28;20131;-74
2022/01/04 11:28:20;;;;;;;3.67;0.40;;;7.30;99.90;;;;;;5073178;28;20055;-75
2022/01/04 11:31:00;;;;;;;4.97;0.50;;;7.30;99.90;;;;;;5074659;28;20389;-75
2022/01/04 11:33:30;;;;;;;1.85;0.25;;;7.20;99.90;;;;;;5058167;28;20128;-75
2022/01/04 11:35:56;;;;;;;2.05;0.15;;;7.10;99.90;;;;;;5073367;28;20066;-75
2022/01/04 11:38:42;;;;;;;1.65;0.50;;;6.90;99.90;;;;;;5074244;28;20118;-75
2022/01/04 11:41:41;;;;;;;2.60;0.20;;;6.90;99.90;;;;;;5073778;28;20052;-71
2022/01/04 11:44:22;;;;;;;2.13;0.17;;;6.80;99.90;;;;;;5055600;28;20044;-72
2022/01/04 11:47:10;;;;;;;0.88;0.10;;;6.80;99.90;;;;;;5057846;28;20446;-75
2022/01/04 11:49:39;;;;;;;3.80;0.22;;;6.70;99.90;;;;;;5062320;28;20044;-76
2022/01/04 11:52:07;;;;;;;2.95;0.20;;;6.70;99.90;;;;;;5088636;28;20052;-76
2022/01/04 11:54:34;;;;;;;1.95;0.10;;;6.70;99.90;;;;;;5054421;28;20056;-75
2022/01/04 11:57:01;;;;;;;2.90;0.10;;;6.70;99.90;;;;;;5063779;28;20054;-73
2022/01/04 11:59:31;;;;;;;2.42;0.10;;;6.70;99.90;;;;;;5070297;28;20044;-75
2022/01/04 12:02:17;;;;;;;1.38;0.00;;;6.70;99.90;;;;;;5071959;28;20457;-74
2022/01/04 12:04:54;;;;;;;2.00;0.00;;;6.60;99.90;;;;;;5069077;28;20091;-72
2022/01/04 12:07:41;;;;;;;2.17;0.00;;;6.50;99.90;;;;;;5053935;28;20056;-75
2022/01/04 12:10:31;;;;;;;0.50;0.10;;;6.40;99.90;;;;;;5071512;28;20071;-72
2022/01/04 12:13:06;;;;;;;0.82;0.00;;;6.30;99.90;;;;;;5064059;28;20075;-73
2022/01/04 12:15:34;;;;;;;0.80;0.00;;;6.20;99.90;;;;;;5072709;28;20079;-75
2022/01/04 12:18:09;;;;;;;2.30;0.00;;;6.20;99.90;;;;;;5072899;28;20130;-75
2022/01/04 12:20:52;;;;;;;1.10;0.00;;;6.30;99.90;;;;;;5073993;28;20044;-71
2022/01/04 12:23:26;;;;;;;2.80;0.10;;;6.40;99.90;;;;;;5073412;28;20048;-74
2022/01/04 12:26:14;;;;;;;1.02;0.10;;;6.40;99.90;;;;;;5056406;28;20051;-75
2022/01/04 12:29:06;;;;;;;1.85;0.10;;;6.50;99.90;;;;;;5073609;28;20140;-73
2022/01/04 12:31:54;;;;;;;0.85;0.00;;;6.50;99.90;;;;;;5059712;28;20060;-75
2022/01/04 12:34:32;;;;;;;1.55;0.10;;;6.60;99.90;;;;;;5076718;28;20040;-72
2022/01/04 12:36:58;;;;;;;2.60;0.13;;;6.60;99.90;;;;;;5053788;28;20048;-71
2022/01/04 12:39:51;;;;;;;3.33;0.10;;;6.60;99.90;;;;;;5052936;28;20123;-75
2022/01/04 12:42:18;;;;;;;1.55;0.00;;;6.60;99.90;;;;;;5067811;28;20056;-75
2022/01/04 12:44:51;;;;;;;1.42;0.10;;;6.60;99.90;;;;;;5072950;28;20044;-75
2022/01/04 12:47:18;;;;;;;2.35;0.00;;;6.50;99.90;;;;;;5072726;28;20435;-75
2022/01/04 12:49:44;;;;;;;3.42;0.10;;;6.60;99.90;;;;;;5073156;28;20404;-77
2022/01/04 12:52:10;;;;;;;3.65;0.35;;;6.60;99.90;;;;;;5056622;28;20477;-73
2022/01/04 12:54:38;;;;;;;3.40;0.20;;;6.60;99.90;;;;;;5072704;28;20048;-75